sensor_id;sensor_type;location;lat;lon;timestamp;P1;durP1;ratioP1;P2;durP2;ratioP2
21152;SDS011;10734;44.792;20.482;2023-04-15T00:01:48;16.13;;;6.43;;
21152;SDS011;10734;44.792;20.482;2023-04-15T00:04:15;12.68;;;6.38;;
21152;SDS011;10734;44.792;20.482;2023-04-15T00:06:41;11.35;;;5.53;;
21152;SDS011;10734;44.792;20.482;2023-04-15T00:09:08;8.90;;;5.10;;
21152;SDS011;10734;44.792;20.482;2023-04-15T00:11:35;11.00;;;5.95;;
21152;SDS011;10734;44.792;20.482;2023-04-15T00:14:01;10.23;;;5.35;;
21152;SDS011;10734;44.792;20.482;2023-04-15T00:16:28;11.57;;;5.63;;
21152;SDS011;10734;44.792;20.482;2023-04-15T00:18:54;13.00;;;5.45;;
21152;SDS011;10734;44.792;20.482;2023-04-15T00:21:22;15.13;;;5.13;;
21152;SDS011;10734;44.792;20.482;2023-04-15T00:23:48;12.63;;;5.95;;
21152;SDS011;10734;44.792;20.482;2023-04-15T00:26:17;12.20;;;5.85;;
21152;SDS011;10734;44.792;20.482;2023-04-15T00:28:45;13.25;;;5.97;;
21152;SDS011;10734;44.792;20.482;2023-04-15T00:31:11;10.80;;;5.20;;
21152;SDS011;10734;44.792;20.482;2023-04-15T00:33:38;8.77;;;4.53;;
21152;SDS011;10734;44.792;20.482;2023-04-15T00:36:05;11.90;;;5.35;;
21152;SDS011;10734;44.792;20.482;2023-04-15T00:38:32;13.15;;;5.57;;
21152;SDS011;10734;44.792;20.482;2023-04-15T00:40:59;8.10;;;4.82;;
21152;SDS011;10734;44.792;20.482;2023-04-15T00:43:26;10.98;;;5.15;;
21152;SDS011;10734;44.792;20.482;2023-04-15T00:45:52;12.25;;;5.53;;
21152;SDS011;10734;44.792;20.482;2023-04-15T00:48:19;10.13;;;4.85;;
21152;SDS011;10734;44.792;20.482;2023-04-15T00:50:49;10.25;;;4.30;;
21152;SDS011;10734;44.792;20.482;2023-04-15T00:53:15;10.38;;;4.38;;
21152;SDS011;10734;44.792;20.482;2023-04-15T00:55:42;8.95;;;3.97;;
21152;SDS011;10734;44.792;20.482;2023-04-15T00:58:09;8.73;;;3.80;;
21152;SDS011;10734;44.792;20.482;2023-04-15T01:00:46;8.48;;;3.85;;
21152;SDS011;10734;44.792;20.482;2023-04-15T01:03:13;9.10;;;3.67;;
21152;SDS011;10734;44.792;20.482;2023-04-15T01:05:40;7.85;;;3.17;;
21152;SDS011;10734;44.792;20.482;2023-04-15T01:08:07;6.68;;;3.65;;
21152;SDS011;10734;44.792;20.482;2023-04-15T01:10:35;6.63;;;3.47;;
21152;SDS011;10734;44.792;20.482;2023-04-15T01:13:05;5.70;;;3.20;;
21152;SDS011;10734;44.792;20.482;2023-04-15T01:15:32;7.15;;;3.55;;
21152;SDS011;10734;44.792;20.482;2023-04-15T01:17:58;10.85;;;3.35;;
21152;SDS011;10734;44.792;20.482;2023-04-15T01:20:25;7.93;;;3.08;;
21152;SDS011;10734;44.792;20.482;2023-04-15T01:22:53;9.52;;;3.53;;
21152;SDS011;10734;44.792;20.482;2023-04-15T01:25:29;10.05;;;3.42;;
21152;SDS011;10734;44.792;20.482;2023-04-15T01:27:56;8.05;;;3.17;;
21152;SDS011;10734;44.792;20.482;2023-04-15T01:30:23;8.20;;;2.97;;
21152;SDS011;10734;44.792;20.482;2023-04-15T01:32:49;12.00;;;3.92;;
21152;SDS011;10734;44.792;20.482;2023-04-15T01:35:16;4.22;;;2.60;;
21152;SDS011;10734;44.792;20.482;2023-04-15T01:37:44;6.22;;;2.88;;
21152;SDS011;10734;44.792;20.482;2023-04-15T01:40:11;7.03;;;2.70;;
21152;SDS011;10734;44.792;20.482;2023-04-15T01:42:39;4.13;;;2.15;;
21152;SDS011;10734;44.792;20.482;2023-04-15T01:45:05;9.93;;;2.92;;
21152;SDS011;10734;44.792;20.482;2023-04-15T01:47:32;10.20;;;2.25;;
21152;SDS011;10734;44.792;20.482;2023-04-15T01:49:58;3.53;;;1.88;;
21152;SDS011;10734;44.792;20.482;2023-04-15T01:52:25;5.85;;;2.05;;
21152;SDS011;10734;44.792;20.482;2023-04-15T01:54:52;4.80;;;2.13;;
21152;SDS011;10734;44.792;20.482;2023-04-15T01:57:18;3.53;;;2.03;;
21152;SDS011;10734;44.792;20.482;2023-04-15T01:59:44;6.47;;;1.83;;
21152;SDS011;10734;44.792;20.482;2023-04-15T02:02:11;3.63;;;2.00;;
21152;SDS011;10734;44.792;20.482;2023-04-15T02:04:37;4.88;;;2.05;;
21152;SDS011;10734;44.792;20.482;2023-04-15T02:07:04;2.78;;;1.67;;
21152;SDS011;10734;44.792;20.482;2023-04-15T02:09:31;5.93;;;2.13;;
21152;SDS011;10734;44.792;20.482;2023-04-15T02:11:57;4.32;;;1.65;;
21152;SDS011;10734;44.792;20.482;2023-04-15T02:14:24;4.72;;;2.17;;
21152;SDS011;10734;44.792;20.482;2023-04-15T02:16:51;5.13;;;1.67;;
21152;SDS011;10734;44.792;20.482;2023-04-15T02:19:17;5.13;;;1.70;;
21152;SDS011;10734;44.792;20.482;2023-04-15T02:21:44;4.28;;;1.88;;
21152;SDS011;10734;44.792;20.482;2023-04-15T02:24:10;3.72;;;2.10;;
21152;SDS011;10734;44.792;20.482;2023-04-15T02:26:37;4.18;;;1.42;;
21152;SDS011;10734;44.792;20.482;2023-04-15T02:29:04;4.30;;;1.75;;
21152;SDS011;10734;44.792;20.482;2023-04-15T02:31:31;3.85;;;1.80;;
21152;SDS011;10734;44.792;20.482;2023-04-15T02:34:02;6.20;;;1.65;;
21152;SDS011;10734;44.792;20.482;2023-04-15T02:36:30;4.00;;;1.70;;
21152;SDS011;10734;44.792;20.482;2023-04-15T02:38:56;3.28;;;1.60;;
21152;SDS011;10734;44.792;20.482;2023-04-15T02:41:23;2.90;;;1.38;;
21152;SDS011;10734;44.792;20.482;2023-04-15T02:43:53;3.45;;;1.52;;
21152;SDS011;10734;44.792;20.482;2023-04-15T02:46:19;2.10;;;1.13;;
21152;SDS011;10734;44.792;20.482;2023-04-15T02:48:48;4.13;;;1.52;;
21152;SDS011;10734;44.792;20.482;2023-04-15T02:51:16;2.47;;;1.30;;
21152;SDS011;10734;44.792;20.482;2023-04-15T02:53:45;4.93;;;1.33;;
21152;SDS011;10734;44.792;20.482;2023-04-15T02:56:12;3.70;;;1.67;;
21152;SDS011;10734;44.792;20.482;2023-04-15T02:58:40;3.60;;;1.10;;
21152;SDS011;10734;44.792;20.482;2023-04-15T03:01:07;1.55;;;1.00;;
21152;SDS011;10734;44.792;20.482;2023-04-15T03:03:37;2.15;;;0.90;;
21152;SDS011;10734;44.792;20.482;2023-04-15T03:06:03;1.98;;;1.13;;
21152;SDS011;10734;44.792;20.482;2023-04-15T03:08:30;3.55;;;1.25;;
21152;SDS011;10734;44.792;20.482;2023-04-15T03:10:59;3.70;;;1.27;;
21152;SDS011;10734;44.792;20.482;2023-04-15T03:13:28;2.40;;;0.93;;
21152;SDS011;10734;44.792;20.482;2023-04-15T03:15:54;2.75;;;1.02;;
21152;SDS011;10734;44.792;20.482;2023-04-15T03:18:21;3.65;;;1.20;;
21152;SDS011;10734;44.792;20.482;2023-04-15T03:20:48;5.75;;;1.70;;
21152;SDS011;10734;44.792;20.482;2023-04-15T03:23:15;3.95;;;1.50;;
21152;SDS011;10734;44.792;20.482;2023-04-15T03:25:43;3.80;;;2.28;;
21152;SDS011;10734;44.792;20.482;2023-04-15T03:28:09;3.70;;;1.70;;
21152;SDS011;10734;44.792;20.482;2023-04-15T03:30:36;4.50;;;1.80;;
21152;SDS011;10734;44.792;20.482;2023-04-15T03:33:02;3.58;;;1.73;;
21152;SDS011;10734;44.792;20.482;2023-04-15T03:35:29;2.72;;;1.80;;
21152;SDS011;10734;44.792;20.482;2023-04-15T03:37:56;2.13;;;1.25;;
21152;SDS011;10734;44.792;20.482;2023-04-15T03:40:22;4.88;;;1.52;;
21152;SDS011;10734;44.792;20.482;2023-04-15T03:42:48;3.72;;;1.83;;
21152;SDS011;10734;44.792;20.482;2023-04-15T03:45:15;6.13;;;2.20;;
21152;SDS011;10734;44.792;20.482;2023-04-15T03:47:41;4.47;;;1.40;;
21152;SDS011;10734;44.792;20.482;2023-04-15T03:50:08;5.10;;;1.23;;
21152;SDS011;10734;44.792;20.482;2023-04-15T03:52:35;4.25;;;1.38;;
21152;SDS011;10734;44.792;20.482;2023-04-15T03:55:02;7.20;;;1.48;;
21152;SDS011;10734;44.792;20.482;2023-04-15T03:57:28;3.97;;;1.27;;
21152;SDS011;10734;44.792;20.482;2023-04-15T03:59:55;3.13;;;1.20;;
21152;SDS011;10734;44.792;20.482;2023-04-15T04:02:21;3.17;;;1.17;;
21152;SDS011;10734;44.792;20.482;2023-04-15T04:04:48;4.07;;;1.20;;
21152;SDS011;10734;44.792;20.482;2023-04-15T04:07:15;5.18;;;1.13;;
21152;SDS011;10734;44.792;20.482;2023-04-15T04:09:42;6.07;;;1.40;;
21152;SDS011;10734;44.792;20.482;2023-04-15T04:12:10;3.08;;;1.60;;
21152;SDS011;10734;44.792;20.482;2023-04-15T04:14:37;4.55;;;2.08;;
21152;SDS011;10734;44.792;20.482;2023-04-15T04:17:03;7.07;;;2.13;;
21152;SDS011;10734;44.792;20.482;2023-04-15T04:19:30;5.38;;;1.95;;
21152;SDS011;10734;44.792;20.482;2023-04-15T04:21:57;7.43;;;2.53;;
21152;SDS011;10734;44.792;20.482;2023-04-15T04:24:23;5.38;;;2.40;;
21152;SDS011;10734;44.792;20.482;2023-04-15T04:26:50;11.10;;;2.42;;
21152;SDS011;10734;44.792;20.482;2023-04-15T04:29:16;4.90;;;1.40;;
21152;SDS011;10734;44.792;20.482;2023-04-15T04:31:43;4.40;;;2.35;;
21152;SDS011;10734;44.792;20.482;2023-04-15T04:34:09;7.82;;;2.88;;
21152;SDS011;10734;44.792;20.482;2023-04-15T04:36:36;9.52;;;6.28;;
21152;SDS011;10734;44.792;20.482;2023-04-15T04:39:02;7.88;;;5.15;;
21152;SDS011;10734;44.792;20.482;2023-04-15T04:41:29;8.45;;;5.60;;
21152;SDS011;10734;44.792;20.482;2023-04-15T04:43:56;6.03;;;3.30;;
21152;SDS011;10734;44.792;20.482;2023-04-15T04:46:22;3.28;;;2.22;;
21152;SDS011;10734;44.792;20.482;2023-04-15T04:48:49;1.85;;;1.40;;
21152;SDS011;10734;44.792;20.482;2023-04-15T04:51:15;2.00;;;1.10;;
21152;SDS011;10734;44.792;20.482;2023-04-15T04:53:43;2.42;;;1.10;;
21152;SDS011;10734;44.792;20.482;2023-04-15T04:56:09;3.65;;;1.27;;
21152;SDS011;10734;44.792;20.482;2023-04-15T04:58:36;2.42;;;1.00;;
21152;SDS011;10734;44.792;20.482;2023-04-15T05:01:03;2.95;;;1.08;;
21152;SDS011;10734;44.792;20.482;2023-04-15T05:03:29;2.50;;;1.20;;
21152;SDS011;10734;44.792;20.482;2023-04-15T05:05:56;2.75;;;1.15;;
21152;SDS011;10734;44.792;20.482;2023-04-15T05:08:23;3.97;;;1.52;;
21152;SDS011;10734;44.792;20.482;2023-04-15T05:10:49;6.05;;;1.38;;
21152;SDS011;10734;44.792;20.482;2023-04-15T05:13:16;3.63;;;1.50;;
21152;SDS011;10734;44.792;20.482;2023-04-15T05:15:43;3.47;;;1.50;;
21152;SDS011;10734;44.792;20.482;2023-04-15T05:18:10;4.47;;;1.67;;
21152;SDS011;10734;44.792;20.482;2023-04-15T05:20:37;3.42;;;1.52;;
21152;SDS011;10734;44.792;20.482;2023-04-15T05:23:03;3.60;;;2.10;;
21152;SDS011;10734;44.792;20.482;2023-04-15T05:25:30;3.35;;;1.80;;
21152;SDS011;10734;44.792;20.482;2023-04-15T05:27:56;6.65;;;1.67;;
21152;SDS011;10734;44.792;20.482;2023-04-15T05:30:23;3.95;;;1.60;;
21152;SDS011;10734;44.792;20.482;2023-04-15T05:32:49;3.00;;;1.30;;
21152;SDS011;10734;44.792;20.482;2023-04-15T05:35:16;7.22;;;1.70;;
21152;SDS011;10734;44.792;20.482;2023-04-15T05:37:43;3.20;;;1.25;;
21152;SDS011;10734;44.792;20.482;2023-04-15T05:40:09;2.45;;;1.10;;
21152;SDS011;10734;44.792;20.482;2023-04-15T05:42:36;4.00;;;1.65;;
21152;SDS011;10734;44.792;20.482;2023-04-15T05:45:03;2.67;;;1.30;;
21152;SDS011;10734;44.792;20.482;2023-04-15T05:47:34;4.07;;;1.80;;
21152;SDS011;10734;44.792;20.482;2023-04-15T05:50:02;3.72;;;1.67;;
21152;SDS011;10734;44.792;20.482;2023-04-15T05:52:28;4.13;;;1.27;;
21152;SDS011;10734;44.792;20.482;2023-04-15T05:54:55;7.30;;;1.65;;
21152;SDS011;10734;44.792;20.482;2023-04-15T05:57:22;2.55;;;1.23;;
21152;SDS011;10734;44.792;20.482;2023-04-15T05:59:48;1.80;;;1.20;;
21152;SDS011;10734;44.792;20.482;2023-04-15T06:02:17;3.53;;;1.20;;
21152;SDS011;10734;44.792;20.482;2023-04-15T06:04:44;4.03;;;1.33;;
21152;SDS011;10734;44.792;20.482;2023-04-15T06:07:10;3.33;;;1.25;;
21152;SDS011;10734;44.792;20.482;2023-04-15T06:09:37;2.92;;;1.17;;
21152;SDS011;10734;44.792;20.482;2023-04-15T06:12:03;3.25;;;1.90;;
21152;SDS011;10734;44.792;20.482;2023-04-15T06:14:31;2.15;;;1.00;;
21152;SDS011;10734;44.792;20.482;2023-04-15T06:16:58;3.20;;;1.20;;
21152;SDS011;10734;44.792;20.482;2023-04-15T06:19:24;2.92;;;1.30;;
21152;SDS011;10734;44.792;20.482;2023-04-15T06:21:51;2.20;;;1.02;;
21152;SDS011;10734;44.792;20.482;2023-04-15T06:24:17;3.38;;;0.98;;
21152;SDS011;10734;44.792;20.482;2023-04-15T06:26:44;2.55;;;1.40;;
21152;SDS011;10734;44.792;20.482;2023-04-15T06:29:11;5.40;;;1.85;;
21152;SDS011;10734;44.792;20.482;2023-04-15T06:31:37;6.50;;;1.40;;
21152;SDS011;10734;44.792;20.482;2023-04-15T06:34:04;4.43;;;1.60;;
21152;SDS011;10734;44.792;20.482;2023-04-15T06:36:30;4.97;;;1.30;;
21152;SDS011;10734;44.792;20.482;2023-04-15T06:38:57;1.50;;;0.80;;
21152;SDS011;10734;44.792;20.482;2023-04-15T06:41:24;3.25;;;1.10;;
21152;SDS011;10734;44.792;20.482;2023-04-15T06:43:51;2.92;;;1.15;;
21152;SDS011;10734;44.792;20.482;2023-04-15T06:46:17;2.22;;;1.13;;
21152;SDS011;10734;44.792;20.482;2023-04-15T06:48:44;3.35;;;1.23;;
21152;SDS011;10734;44.792;20.482;2023-04-15T06:51:10;2.08;;;0.90;;
21152;SDS011;10734;44.792;20.482;2023-04-15T06:53:37;3.80;;;1.00;;
21152;SDS011;10734;44.792;20.482;2023-04-15T06:56:09;2.80;;;1.27;;
21152;SDS011;10734;44.792;20.482;2023-04-15T06:58:35;10.77;;;2.95;;
21152;SDS011;10734;44.792;20.482;2023-04-15T07:01:02;6.32;;;3.10;;
21152;SDS011;10734;44.792;20.482;2023-04-15T07:03:29;4.60;;;2.33;;
21152;SDS011;10734;44.792;20.482;2023-04-15T07:05:59;2.65;;;0.90;;
21152;SDS011;10734;44.792;20.482;2023-04-15T07:08:26;1.10;;;0.57;;
21152;SDS011;10734;44.792;20.482;2023-04-15T07:10:53;4.93;;;1.05;;
21152;SDS011;10734;44.792;20.482;2023-04-15T07:13:20;4.00;;;1.70;;
21152;SDS011;10734;44.792;20.482;2023-04-15T07:15:47;6.00;;;3.25;;
21152;SDS011;10734;44.792;20.482;2023-04-15T07:18:13;1.63;;;0.63;;
21152;SDS011;10734;44.792;20.482;2023-04-15T07:20:40;2.20;;;0.80;;
21152;SDS011;10734;44.792;20.482;2023-04-15T07:23:06;2.40;;;0.60;;
21152;SDS011;10734;44.792;20.482;2023-04-15T07:25:33;2.38;;;1.05;;
21152;SDS011;10734;44.792;20.482;2023-04-15T07:27:59;3.35;;;1.75;;
21152;SDS011;10734;44.792;20.482;2023-04-15T07:30:27;3.08;;;1.40;;
21152;SDS011;10734;44.792;20.482;2023-04-15T07:32:54;2.85;;;1.38;;
21152;SDS011;10734;44.792;20.482;2023-04-15T07:35:21;4.15;;;1.33;;
21152;SDS011;10734;44.792;20.482;2023-04-15T07:37:48;2.10;;;0.70;;
21152;SDS011;10734;44.792;20.482;2023-04-15T07:40:15;2.47;;;1.02;;
21152;SDS011;10734;44.792;20.482;2023-04-15T07:42:41;1.92;;;0.70;;
21152;SDS011;10734;44.792;20.482;2023-04-15T07:45:08;3.10;;;0.77;;
21152;SDS011;10734;44.792;20.482;2023-04-15T07:47:35;3.05;;;0.80;;
21152;SDS011;10734;44.792;20.482;2023-04-15T07:50:02;5.43;;;1.15;;
21152;SDS011;10734;44.792;20.482;2023-04-15T07:52:28;3.03;;;1.00;;
21152;SDS011;10734;44.792;20.482;2023-04-15T07:54:55;2.25;;;0.80;;
21152;SDS011;10734;44.792;20.482;2023-04-15T07:57:21;1.85;;;0.80;;
21152;SDS011;10734;44.792;20.482;2023-04-15T07:59:48;1.80;;;0.73;;
21152;SDS011;10734;44.792;20.482;2023-04-15T08:02:14;1.63;;;0.68;;
21152;SDS011;10734;44.792;20.482;2023-04-15T08:04:41;2.88;;;0.95;;
21152;SDS011;10734;44.792;20.482;2023-04-15T08:07:08;1.23;;;0.77;;
21152;SDS011;10734;44.792;20.482;2023-04-15T08:09:35;3.25;;;1.00;;
21152;SDS011;10734;44.792;20.482;2023-04-15T08:12:02;2.05;;;0.90;;
21152;SDS011;10734;44.792;20.482;2023-04-15T08:14:29;1.77;;;0.70;;
21152;SDS011;10734;44.792;20.482;2023-04-15T08:16:55;3.75;;;0.93;;
21152;SDS011;10734;44.792;20.482;2023-04-15T08:19:22;2.17;;;0.68;;
21152;SDS011;10734;44.792;20.482;2023-04-15T08:21:49;0.95;;;0.68;;
21152;SDS011;10734;44.792;20.482;2023-04-15T08:24:16;0.95;;;0.70;;
21152;SDS011;10734;44.792;20.482;2023-04-15T08:26:42;1.88;;;0.82;;
21152;SDS011;10734;44.792;20.482;2023-04-15T08:29:09;1.80;;;0.68;;
21152;SDS011;10734;44.792;20.482;2023-04-15T08:31:35;1.17;;;0.50;;
21152;SDS011;10734;44.792;20.482;2023-04-15T08:34:02;3.17;;;0.50;;
21152;SDS011;10734;44.792;20.482;2023-04-15T08:36:29;1.95;;;0.82;;
21152;SDS011;10734;44.792;20.482;2023-04-15T08:38:56;2.95;;;0.68;;
21152;SDS011;10734;44.792;20.482;2023-04-15T08:41:23;1.60;;;0.60;;
21152;SDS011;10734;44.792;20.482;2023-04-15T08:43:52;2.15;;;0.50;;
21152;SDS011;10734;44.792;20.482;2023-04-15T08:46:20;1.30;;;0.45;;
21152;SDS011;10734;44.792;20.482;2023-04-15T08:48:46;0.95;;;0.60;;
21152;SDS011;10734;44.792;20.482;2023-04-15T08:51:13;4.15;;;0.90;;
21152;SDS011;10734;44.792;20.482;2023-04-15T08:53:42;0.60;;;0.50;;
21152;SDS011;10734;44.792;20.482;2023-04-15T08:56:09;1.80;;;0.80;;
21152;SDS011;10734;44.792;20.482;2023-04-15T08:58:36;1.30;;;0.70;;
21152;SDS011;10734;44.792;20.482;2023-04-15T09:01:03;1.38;;;0.82;;
21152;SDS011;10734;44.792;20.482;2023-04-15T09:03:29;1.27;;;0.52;;
21152;SDS011;10734;44.792;20.482;2023-04-15T09:05:57;4.93;;;1.05;;
21152;SDS011;10734;44.792;20.482;2023-04-15T09:08:24;2.92;;;0.85;;
21152;SDS011;10734;44.792;20.482;2023-04-15T09:10:51;3.25;;;1.52;;
21152;SDS011;10734;44.792;20.482;2023-04-15T09:13:17;1.30;;;0.57;;
21152;SDS011;10734;44.792;20.482;2023-04-15T09:15:44;1.00;;;0.50;;
21152;SDS011;10734;44.792;20.482;2023-04-15T09:18:11;2.67;;;0.70;;
21152;SDS011;10734;44.792;20.482;2023-04-15T09:20:41;2.47;;;1.27;;
21152;SDS011;10734;44.792;20.482;2023-04-15T09:23:12;3.33;;;1.13;;
21152;SDS011;10734;44.792;20.482;2023-04-15T09:25:39;2.45;;;0.88;;
21152;SDS011;10734;44.792;20.482;2023-04-15T09:28:08;3.72;;;1.10;;
21152;SDS011;10734;44.792;20.482;2023-04-15T09:30:34;3.33;;;1.30;;
21152;SDS011;10734;44.792;20.482;2023-04-15T09:33:01;1.85;;;0.60;;
21152;SDS011;10734;44.792;20.482;2023-04-15T09:35:30;2.08;;;0.70;;
21152;SDS011;10734;44.792;20.482;2023-04-15T09:38:03;3.35;;;0.93;;
21152;SDS011;10734;44.792;20.482;2023-04-15T09:40:31;1.75;;;0.85;;
21152;SDS011;10734;44.792;20.482;2023-04-15T09:42:59;2.67;;;0.77;;
21152;SDS011;10734;44.792;20.482;2023-04-15T09:45:27;2.10;;;0.75;;
21152;SDS011;10734;44.792;20.482;2023-04-15T09:47:55;1.17;;;0.73;;
21152;SDS011;10734;44.792;20.482;2023-04-15T09:50:27;2.90;;;0.80;;
21152;SDS011;10734;44.792;20.482;2023-04-15T09:52:56;1.90;;;0.70;;
21152;SDS011;10734;44.792;20.482;2023-04-15T09:55:24;0.90;;;0.60;;
21152;SDS011;10734;44.792;20.482;2023-04-15T09:57:51;2.05;;;0.80;;
21152;SDS011;10734;44.792;20.482;2023-04-15T10:00:17;1.85;;;0.80;;
21152;SDS011;10734;44.792;20.482;2023-04-15T10:02:44;3.75;;;0.85;;
21152;SDS011;10734;44.792;20.482;2023-04-15T10:05:13;1.00;;;0.60;;
21152;SDS011;10734;44.792;20.482;2023-04-15T10:07:41;2.95;;;1.00;;
21152;SDS011;10734;44.792;20.482;2023-04-15T10:10:08;0.88;;;0.63;;
21152;SDS011;10734;44.792;20.482;2023-04-15T10:12:36;5.28;;;0.80;;
21152;SDS011;10734;44.792;20.482;2023-04-15T10:15:03;1.58;;;0.70;;
21152;SDS011;10734;44.792;20.482;2023-04-15T10:17:31;1.55;;;0.73;;
21152;SDS011;10734;44.792;20.482;2023-04-15T10:20:03;1.08;;;0.70;;
21152;SDS011;10734;44.792;20.482;2023-04-15T10:22:30;1.00;;;0.80;;
21152;SDS011;10734;44.792;20.482;2023-04-15T10:24:58;0.95;;;0.70;;
21152;SDS011;10734;44.792;20.482;2023-04-15T10:27:26;1.65;;;0.73;;
21152;SDS011;10734;44.792;20.482;2023-04-15T10:29:53;2.25;;;1.00;;
21152;SDS011;10734;44.792;20.482;2023-04-15T10:32:19;2.50;;;0.85;;
21152;SDS011;10734;44.792;20.482;2023-04-15T10:34:47;3.28;;;0.68;;
21152;SDS011;10734;44.792;20.482;2023-04-15T10:37:19;1.80;;;0.70;;
21152;SDS011;10734;44.792;20.482;2023-04-15T10:39:46;0.82;;;0.55;;
21152;SDS011;10734;44.792;20.482;2023-04-15T10:42:14;1.30;;;0.90;;
21152;SDS011;10734;44.792;20.482;2023-04-15T10:44:42;1.75;;;0.60;;
21152;SDS011;10734;44.792;20.482;2023-04-15T10:47:12;2.40;;;0.90;;
21152;SDS011;10734;44.792;20.482;2023-04-15T10:49:43;1.52;;;0.68;;
21152;SDS011;10734;44.792;20.482;2023-04-15T10:52:13;2.00;;;0.77;;
21152;SDS011;10734;44.792;20.482;2023-04-15T10:54:40;1.10;;;0.77;;
21152;SDS011;10734;44.792;20.482;2023-04-15T10:57:08;1.27;;;0.70;;
21152;SDS011;10734;44.792;20.482;2023-04-15T10:59:35;1.38;;;0.80;;
21152;SDS011;10734;44.792;20.482;2023-04-15T11:02:04;3.30;;;0.68;;
21152;SDS011;10734;44.792;20.482;2023-04-15T11:04:53;3.65;;;1.13;;
21152;SDS011;10734;44.792;20.482;2023-04-15T11:12:57;2.78;;;1.00;;
21152;SDS011;10734;44.792;20.482;2023-04-15T11:15:26;4.18;;;1.17;;
21152;SDS011;10734;44.792;20.482;2023-04-15T11:17:52;1.88;;;1.17;;
21152;SDS011;10734;44.792;20.482;2023-04-15T11:20:19;2.53;;;1.00;;
21152;SDS011;10734;44.792;20.482;2023-04-15T11:22:47;2.05;;;0.98;;
21152;SDS011;10734;44.792;20.482;2023-04-15T11:25:27;1.60;;;0.73;;
21152;SDS011;10734;44.792;20.482;2023-04-15T11:27:54;1.40;;;0.90;;
21152;SDS011;10734;44.792;20.482;2023-04-15T11:30:22;2.17;;;1.40;;
21152;SDS011;10734;44.792;20.482;2023-04-15T11:32:49;2.00;;;1.20;;
21152;SDS011;10734;44.792;20.482;2023-04-15T11:35:16;2.03;;;1.10;;
21152;SDS011;10734;44.792;20.482;2023-04-15T11:37:43;1.75;;;1.05;;
21152;SDS011;10734;44.792;20.482;2023-04-15T11:40:10;4.30;;;1.25;;
21152;SDS011;10734;44.792;20.482;2023-04-15T11:42:37;1.10;;;1.00;;
21152;SDS011;10734;44.792;20.482;2023-04-15T11:45:15;2.10;;;1.30;;
21152;SDS011;10734;44.792;20.482;2023-04-15T11:47:41;1.75;;;0.95;;
21152;SDS011;10734;44.792;20.482;2023-04-15T11:50:18;1.77;;;1.10;;
21152;SDS011;10734;44.792;20.482;2023-04-15T11:52:57;3.20;;;1.10;;
21152;SDS011;10734;44.792;20.482;2023-04-15T11:55:24;2.13;;;1.10;;
21152;SDS011;10734;44.792;20.482;2023-04-15T12:00:37;2.00;;;0.90;;
21152;SDS011;10734;44.792;20.482;2023-04-15T12:03:21;1.67;;;0.98;;
21152;SDS011;10734;44.792;20.482;2023-04-15T12:11:16;1.90;;;1.02;;
21152;SDS011;10734;44.792;20.482;2023-04-15T12:13:43;3.33;;;1.00;;
21152;SDS011;10734;44.792;20.482;2023-04-15T12:16:09;2.55;;;0.77;;
21152;SDS011;10734;44.792;20.482;2023-04-15T12:18:37;1.08;;;0.80;;
21152;SDS011;10734;44.792;20.482;2023-04-15T12:21:08;1.67;;;1.02;;
21152;SDS011;10734;44.792;20.482;2023-04-15T12:23:36;2.23;;;0.93;;
21152;SDS011;10734;44.792;20.482;2023-04-15T12:26:05;2.00;;;1.20;;
21152;SDS011;10734;44.792;20.482;2023-04-15T12:28:35;1.58;;;1.02;;
21152;SDS011;10734;44.792;20.482;2023-04-15T12:31:08;1.83;;;1.02;;
21152;SDS011;10734;44.792;20.482;2023-04-15T12:33:35;2.28;;;0.93;;
21152;SDS011;10734;44.792;20.482;2023-04-15T12:36:02;3.47;;;1.15;;
21152;SDS011;10734;44.792;20.482;2023-04-15T12:38:29;1.95;;;1.00;;
21152;SDS011;10734;44.792;20.482;2023-04-15T12:40:57;2.25;;;1.00;;
21152;SDS011;10734;44.792;20.482;2023-04-15T12:43:24;1.77;;;1.00;;
21152;SDS011;10734;44.792;20.482;2023-04-15T12:45:50;2.08;;;1.13;;
21152;SDS011;10734;44.792;20.482;2023-04-15T12:48:17;2.35;;;0.98;;
21152;SDS011;10734;44.792;20.482;2023-04-15T12:50:43;4.10;;;0.80;;
21152;SDS011;10734;44.792;20.482;2023-04-15T12:53:10;2.47;;;0.95;;
21152;SDS011;10734;44.792;20.482;2023-04-15T12:55:36;1.65;;;0.88;;
21152;SDS011;10734;44.792;20.482;2023-04-15T12:58:03;2.80;;;0.82;;
21152;SDS011;10734;44.792;20.482;2023-04-15T13:00:29;2.55;;;0.60;;
21152;SDS011;10734;44.792;20.482;2023-04-15T13:02:58;1.70;;;0.82;;
21152;SDS011;10734;44.792;20.482;2023-04-15T13:05:25;2.08;;;0.70;;
21152;SDS011;10734;44.792;20.482;2023-04-15T13:07:52;4.68;;;0.77;;
21152;SDS011;10734;44.792;20.482;2023-04-15T13:10:18;2.70;;;1.10;;
21152;SDS011;10734;44.792;20.482;2023-04-15T13:12:44;2.92;;;1.17;;
21152;SDS011;10734;44.792;20.482;2023-04-15T13:15:12;2.17;;;1.10;;
21152;SDS011;10734;44.792;20.482;2023-04-15T13:17:38;1.60;;;0.60;;
21152;SDS011;10734;44.792;20.482;2023-04-15T13:20:05;1.92;;;0.50;;
21152;SDS011;10734;44.792;20.482;2023-04-15T13:22:31;2.33;;;0.80;;
21152;SDS011;10734;44.792;20.482;2023-04-15T13:24:58;2.72;;;0.90;;
21152;SDS011;10734;44.792;20.482;2023-04-15T13:27:24;1.15;;;0.55;;
21152;SDS011;10734;44.792;20.482;2023-04-15T13:29:51;2.40;;;0.80;;
21152;SDS011;10734;44.792;20.482;2023-04-15T13:32:18;1.55;;;0.75;;
21152;SDS011;10734;44.792;20.482;2023-04-15T13:34:44;1.08;;;0.90;;
21152;SDS011;10734;44.792;20.482;2023-04-15T13:37:11;1.42;;;1.13;;
21152;SDS011;10734;44.792;20.482;2023-04-15T13:39:37;2.00;;;0.93;;
21152;SDS011;10734;44.792;20.482;2023-04-15T13:42:04;1.00;;;0.90;;
21152;SDS011;10734;44.792;20.482;2023-04-15T13:44:30;1.33;;;0.60;;
21152;SDS011;10734;44.792;20.482;2023-04-15T13:46:57;1.77;;;0.70;;
21152;SDS011;10734;44.792;20.482;2023-04-15T13:49:23;1.88;;;0.80;;
21152;SDS011;10734;44.792;20.482;2023-04-15T13:51:50;1.42;;;0.77;;
21152;SDS011;10734;44.792;20.482;2023-04-15T13:54:17;1.70;;;0.90;;
21152;SDS011;10734;44.792;20.482;2023-04-15T13:56:43;1.65;;;0.70;;
21152;SDS011;10734;44.792;20.482;2023-04-15T13:59:10;1.75;;;0.93;;
21152;SDS011;10734;44.792;20.482;2023-04-15T14:01:36;1.13;;;0.60;;
21152;SDS011;10734;44.792;20.482;2023-04-15T14:04:03;0.70;;;0.70;;
21152;SDS011;10734;44.792;20.482;2023-04-15T14:06:30;2.03;;;0.70;;
21152;SDS011;10734;44.792;20.482;2023-04-15T14:08:57;2.05;;;1.13;;
21152;SDS011;10734;44.792;20.482;2023-04-15T14:11:23;1.48;;;0.90;;
21152;SDS011;10734;44.792;20.482;2023-04-15T14:13:50;1.55;;;0.90;;
21152;SDS011;10734;44.792;20.482;2023-04-15T14:16:17;1.10;;;0.70;;
21152;SDS011;10734;44.792;20.482;2023-04-15T14:18:43;0.98;;;0.57;;
21152;SDS011;10734;44.792;20.482;2023-04-15T14:21:10;2.90;;;0.80;;
21152;SDS011;10734;44.792;20.482;2023-04-15T14:23:36;2.55;;;1.35;;
21152;SDS011;10734;44.792;20.482;2023-04-15T14:26:03;1.58;;;0.70;;
21152;SDS011;10734;44.792;20.482;2023-04-15T14:28:29;3.75;;;1.67;;
21152;SDS011;10734;44.792;20.482;2023-04-15T14:30:57;4.63;;;1.00;;
21152;SDS011;10734;44.792;20.482;2023-04-15T14:33:23;2.15;;;0.88;;
21152;SDS011;10734;44.792;20.482;2023-04-15T14:35:50;1.52;;;0.80;;
21152;SDS011;10734;44.792;20.482;2023-04-15T14:38:16;1.25;;;0.60;;
21152;SDS011;10734;44.792;20.482;2023-04-15T14:40:43;2.33;;;1.02;;
21152;SDS011;10734;44.792;20.482;2023-04-15T14:43:10;1.15;;;0.70;;
21152;SDS011;10734;44.792;20.482;2023-04-15T14:45:37;0.93;;;0.70;;
21152;SDS011;10734;44.792;20.482;2023-04-15T14:48:08;1.10;;;1.00;;